Terminal Aerodrome Forecast
Issued by NWS

Home | Current Version | Previous Version | Graphics & Text | Print | Product List | Glossary On
Versions: 1 2 3 4 5 6 7 8 9 10 11 12 13 14 15 16 17 18
000
FTUS43 KICT 021206 AAA
TAFRSL
TAF AMD
KRSL 021206Z 0212/0312 06006KT P6SM SCT007
      TEMPO 0212/0214 4SM BR BKN007
     FM021400 35014KT P6SM VCTS SCT030 BKN060CB
      TEMPO 0214/0216 VRB20G30KT 4SM +TSRA BKN030CB
     FM021800 36007KT P6SM SCT060 BKN150=

USA.gov is the U.S. government's official web portal to all federal, state and local government web resources and services.